Basswood, Minnesota
Current Conditions -  °F | °C
As of 6:15 AM on Friday 19 Dec 2014 (Local Time) from KADC Reporting Station
Haze Haze  
Wind Chill:   Ceiling: 600
Heat Index: 19°   Visibility: 5mi
Dew Point: 18°   Wind: 10mph
Humidity: 93%   Direction: 330°NNW
Pressure: 30.13"   Gusts: NA
Location:  46.4997°N, 95.5993°W
Report Text: KADC 191215Z AUTO 33009KT 5SM BR OVC006 M07/M08 A3013 RMK AO2
Loading
Personal Weather Stations






























Interactive Weather Map New forecast layout! Learn more

10-Day Weather Forecast

Advertisements
Track Severe Weather on mobile